Time;durP1;ratioP1;P1;durP2;ratioP2;P2;SDS_P1;SDS_P2;PMS_P1;PMS_P2;Temp;Humidity;BMP_temperature;BMP_pressure;BME280_temperature;BME280_humidity;BME280_pressure;Samples;Min_cycle;Max_cycle;Signal;HPM_P1;HPM_P2
2023/05/10 00:00:57;;;;;;;60.50;20.55;;;;;;;12.53;100.00;100801.34;6137836;23;20033;-96
2023/05/10 00:03:22;;;;;;;62.47;21.90;;;;;;;12.51;100.00;100795.19;6137281;23;20322;-96
2023/05/10 00:05:48;;;;;;;68.82;23.63;;;;;;;12.47;100.00;100793.38;6139212;23;20017;-96
2023/05/10 00:08:13;;;;;;;65.80;22.95;;;;;;;12.44;100.00;100793.34;6139405;23;20017;-96
2023/05/10 00:10:42;;;;;;;68.07;23.67;;;;;;;12.40;100.00;100799.38;6138303;23;20002;-96
2023/05/10 00:13:07;;;;;;;66.72;23.15;;;;;;;12.38;100.00;100795.88;6140063;23;20002;-96
2023/05/10 00:15:34;;;;;;;66.75;22.73;;;;;;;12.35;100.00;100796.69;6141991;23;20009;-96
2023/05/10 00:18:00;;;;;;;68.28;24.02;;;;;;;12.38;100.00;100798.47;6141471;23;20005;-96
2023/05/10 00:20:25;;;;;;;70.72;24.70;;;;;;;12.40;100.00;100802.88;6141222;23;20002;-96
2023/05/10 00:22:51;;;;;;;69.00;24.10;;;;;;;12.42;100.00;100798.53;6141702;23;20010;-96
2023/05/10 00:25:21;;;;;;;73.18;25.20;;;;;;;12.43;100.00;100796.81;6144554;23;20005;-96
2023/05/10 00:27:47;;;;;;;75.93;25.17;;;;;;;12.41;100.00;100795.91;6145266;23;20010;-96
2023/05/10 00:30:13;;;;;;;76.03;24.65;;;;;;;12.39;100.00;100800.25;6145070;23;19994;-96
2023/05/10 00:32:38;;;;;;;75.60;25.70;;;;;;;12.34;100.00;100794.94;6144833;23;20028;-96
2023/05/10 00:35:04;;;;;;;73.13;25.17;;;;;;;12.34;100.00;100798.44;6145021;23;20001;-96
2023/05/10 00:37:30;;;;;;;77.57;27.02;;;;;;;12.31;100.00;100801.00;6146398;23;19991;-96
2023/05/10 00:39:59;;;;;;;71.55;25.52;;;;;;;12.31;100.00;100801.00;6146127;23;20029;-96
2023/05/10 00:42:24;;;;;;;72.10;24.77;;;;;;;12.31;100.00;100805.34;6146251;23;20050;-96
2023/05/10 00:44:50;;;;;;;63.83;23.42;;;;;;;12.25;100.00;100803.53;6145882;23;20013;-96
2023/05/10 00:47:19;;;;;;;73.97;26.27;;;;;;;12.27;100.00;100804.41;6119806;23;20020;-96
2023/05/10 00:49:45;;;;;;;83.38;28.45;;;;;;;12.27;100.00;100801.81;6146575;23;20014;-96
2023/05/10 00:52:24;;;;;;;83.97;28.23;;;;;;;12.27;100.00;100799.19;6145565;23;20002;-96
2023/05/10 00:55:00;;;;;;;;;;;;;;;12.30;100.00;100794.00;6147443;23;20010;-96
2023/05/10 00:57:36;;;;;;;84.40;27.50;;;;;;;12.29;100.00;100794.00;6146747;23;19924;-96
2023/05/10 01:00:05;;;;;;;90.60;29.55;;;;;;;12.29;100.00;100794.00;6147319;23;20006;-96
2023/05/10 01:02:33;;;;;;;87.85;28.98;;;;;;;12.27;100.00;100791.34;6124300;23;20032;-96
2023/05/10 01:04:59;;;;;;;89.30;29.05;;;;;;;12.24;100.00;100791.31;6146282;23;20053;-96
2023/05/10 01:07:29;;;;;;;92.00;29.17;;;;;;;12.22;100.00;100793.00;6147156;23;20503;-96
2023/05/10 01:09:58;;;;;;;99.72;29.75;;;;;;;12.22;100.00;100792.13;6122539;23;20006;-96
2023/05/10 01:12:24;;;;;;;103.05;32.08;;;;;;;12.23;100.00;100794.78;6099201;23;20006;-96
2023/05/10 01:14:49;;;;;;;95.22;31.23;;;;;;;12.22;100.00;100789.53;6148870;23;20033;-96
2023/05/10 01:17:20;;;;;;;98.88;29.90;;;;;;;12.24;100.00;100790.41;6148426;23;20084;-96
2023/05/10 01:19:48;;;;;;;93.40;30.63;;;;;;;12.25;100.00;100784.34;6124559;23;20014;-96
2023/05/10 01:22:39;;;;;;;114.13;34.15;;;;;;;12.27;100.00;100788.75;6148493;23;19990;-96
2023/05/10 01:25:13;;;;;;;111.88;32.67;;;;;;;12.28;100.00;100793.13;6149533;23;20005;-96
2023/05/10 01:28:03;;;;;;;112.43;32.47;;;;;;;12.26;100.00;100792.19;6147798;23;19990;-96
2023/05/10 01:30:34;;;;;;;129.38;35.55;;;;;;;12.27;100.00;100791.34;6090907;23;20018;-60
2023/05/10 01:35:41;;;;;;;107.68;30.90;;;;;;;12.28;100.00;100779.16;6076365;23;20578;-77
2023/05/10 01:38:18;;;;;;;150.32;38.45;;;;;;;12.32;100.00;100788.81;6083379;23;20019;-76
2023/05/10 01:41:10;;;;;;;168.98;40.90;;;;;;;12.33;100.00;100788.84;6086357;23;20014;-60
2023/05/10 01:43:46;;;;;;;177.70;43.00;;;;;;;12.32;100.00;100784.44;6074358;23;20021;-76
2023/05/10 01:46:17;;;;;;;154.20;38.20;;;;;;;12.35;100.00;100786.25;6099967;23;20752;-76
2023/05/10 01:56:31;;;;;;;177.48;43.72;;;;;;;12.34;100.00;100798.44;6107448;23;20022;-76
2023/05/10 01:58:58;;;;;;;191.23;45.95;;;;;;;12.33;100.00;100796.66;6106170;23;20017;-59
2023/05/10 02:01:26;;;;;;;184.98;44.58;;;;;;;12.31;100.00;100792.25;6114755;23;20038;-76
2023/05/10 02:03:51;;;;;;;183.35;44.17;;;;;;;12.31;100.00;100798.41;6109813;23;20029;-60
2023/05/10 02:08:56;;;;;;;174.00;42.90;;;;;;;12.32;100.00;100797.50;6077217;23;20027;-76
2023/05/10 02:11:22;;;;;;;171.02;44.00;;;;;;;12.35;100.00;100805.44;6081166;23;20041;-76
2023/05/10 02:18:52;;;;;;;178.15;44.65;;;;;;;12.33;100.00;100806.25;6071323;23;20025;-77
2023/05/10 02:26:20;;;;;;;178.90;45.42;;;;;;;12.38;100.00;100815.03;6071511;23;20035;-75
2023/05/10 02:28:46;;;;;;;184.40;46.30;;;;;;;12.38;100.00;100812.41;6045362;23;1169424;-60
2023/05/10 02:31:12;;;;;;;172.13;44.92;;;;;;;12.36;100.00;100819.38;6086390;23;20042;-75
2023/05/10 02:33:40;;;;;;;212.98;51.30;;;;;;;12.35;100.00;100821.09;6078366;23;20455;-76
2023/05/10 02:36:08;;;;;;;211.25;50.45;;;;;;;12.41;100.00;100809.88;6069996;23;20132;-60
2023/05/10 02:41:05;;;;;;;225.95;50.95;;;;;;;12.37;100.00;100820.22;6081437;23;20026;-78
2023/05/10 02:43:33;;;;;;;218.52;54.35;;;;;;;12.31;100.00;100814.06;6083296;23;20101;-77
2023/05/10 02:45:58;;;;;;;212.82;52.83;;;;;;;12.30;100.00;100820.13;6089228;23;20081;-77
2023/05/10 02:48:24;;;;;;;221.30;53.40;;;;;;;12.28;100.00;100819.25;6085571;23;20105;-60
2023/05/10 02:50:52;;;;;;;223.60;54.70;;;;;;;12.28;100.00;100811.41;6084364;23;20026;-58
2023/05/10 02:53:31;;;;;;;218.55;54.63;;;;;;;12.27;100.00;100814.00;6089165;23;20034;-58
2023/05/10 02:56:00;;;;;;;182.43;46.85;;;;;;;12.25;100.00;100811.38;6086382;23;20022;-76
2023/05/10 02:58:26;;;;;;;241.02;56.22;;;;;;;12.26;100.00;100820.94;6073297;23;20019;-76
2023/05/10 03:00:51;;;;;;;239.50;56.17;;;;;;;12.25;100.00;100816.59;6088100;23;20026;-59
2023/05/10 03:03:17;;;;;;;213.38;51.28;;;;;;;12.25;100.00;100824.44;6085653;23;20350;-77
2023/05/10 03:05:42;;;;;;;238.10;56.30;;;;;;;12.23;100.00;100822.63;6068913;23;20098;-59
2023/05/10 03:08:08;;;;;;;223.02;54.13;;;;;;;12.22;100.00;100824.34;6080624;23;20018;-76
2023/05/10 03:10:41;;;;;;;233.55;55.70;;;;;;;12.22;100.00;100826.97;6082099;23;20014;-76
2023/05/10 03:13:28;;;;;;;227.20;55.15;;;;;;;12.24;100.00;100820.03;6087115;23;20080;-96
2023/05/10 03:16:12;;;;;;;219.15;54.17;;;;;;;12.28;100.00;100821.84;6098526;23;20018;-96
2023/05/10 03:19:06;;;;;;;223.82;54.47;;;;;;;12.22;100.00;100826.97;6096859;23;20018;-96
2023/05/10 03:21:47;;;;;;;;;;;;;;;;;;;;;
2023/05/10 03:24:48;;;;;;;197.85;50.00;;;;;;;12.25;100.00;100833.97;6124761;23;20018;-96
2023/05/10 03:27:52;;;;;;;;;;;;;;;;;;;;;
2023/05/10 03:30:32;;;;;;;199.57;49.85;;;;;;;12.23;100.00;100841.78;6123019;23;20002;-96
2023/05/10 03:33:06;;;;;;;186.43;47.83;;;;;;;12.22;100.00;100832.19;6096822;23;20033;-96
2023/05/10 03:35:33;;;;;;;182.68;49.15;;;;;;;12.22;100.00;100831.31;6078283;23;20026;-77
2023/05/10 03:37:59;;;;;;;175.68;45.10;;;;;;;12.23;100.00;100836.56;6097506;23;20023;-78
2023/05/10 03:40:25;;;;;;;175.20;43.83;;;;;;;12.23;100.00;100836.56;6083278;23;20026;-79
2023/05/10 03:42:51;;;;;;;172.23;46.50;;;;;;;12.21;100.00;100840.00;6083189;23;20005;-60
2023/05/10 03:45:16;;;;;;;163.77;42.00;;;;;;;12.23;100.00;100833.09;6080898;23;20015;-60
2023/05/10 03:47:41;;;;;;;176.73;46.97;;;;;;;12.25;100.00;100841.81;6087810;23;20014;-59
2023/05/10 03:50:07;;;;;;;161.00;41.88;;;;;;;12.23;100.00;100846.16;6071111;23;20033;-59
2023/05/10 03:52:32;;;;;;;154.27;39.38;;;;;;;12.26;100.00;100840.97;6080427;23;20025;-60
2023/05/10 03:54:58;;;;;;;168.63;44.13;;;;;;;12.21;100.00;100842.63;6085340;23;20044;-74
2023/05/10 03:57:23;;;;;;;168.55;44.40;;;;;;;12.26;100.00;100848.81;6079586;23;20029;-78
2023/05/10 03:59:48;;;;;;;160.02;42.88;;;;;;;12.24;100.00;100850.50;6088888;23;20018;-78
2023/05/10 04:02:14;;;;;;;181.93;45.10;;;;;;;12.22;100.00;100852.22;6081425;23;20034;-78
2023/05/10 04:04:39;;;;;;;167.40;44.38;;;;;;;12.18;100.00;100851.31;6070449;23;20270;-77
2023/05/10 04:07:05;;;;;;;175.27;44.85;;;;;;;12.22;100.00;100854.84;6104439;23;20014;-59
2023/05/10 04:09:30;;;;;;;168.68;43.83;;;;;;;12.26;100.00;100847.06;6111552;23;20022;-60
2023/05/10 04:11:55;;;;;;;162.82;44.10;;;;;;;12.21;100.00;100859.19;6114216;23;20026;-78
2023/05/10 04:14:21;;;;;;;187.50;46.47;;;;;;;12.21;100.00;100853.97;6114799;23;20018;-78
2023/05/10 04:16:46;;;;;;;199.20;43.00;;;;;;;12.22;100.00;100860.91;6107379;23;20021;-78
2023/05/10 04:24:12;;;;;;;233.43;51.40;;;;;;;12.18;100.00;100846.94;6100553;23;20277;-60
2023/05/10 04:29:09;;;;;;;227.50;49.83;;;;;;;12.16;100.00;100860.81;6108803;23;20221;-60
2023/05/10 04:31:36;;;;;;;188.45;45.55;;;;;;;12.21;100.00;100848.75;6103525;23;20021;-79
2023/05/10 04:36:35;;;;;;;164.38;39.33;;;;;;;12.11;100.00;100859.88;6076601;23;20035;-60
2023/05/10 04:39:02;;;;;;;182.23;45.95;;;;;;;12.05;100.00;100864.97;6083057;23;20018;-60
2023/05/10 04:41:28;;;;;;;141.80;34.40;;;;;;;12.16;100.00;100866.91;6085259;23;20023;-78
2023/05/10 04:43:53;;;;;;;144.60;34.63;;;;;;;12.04;100.00;100865.84;6088399;23;20009;-78
2023/05/10 04:46:18;;;;;;;123.90;34.90;;;;;;;12.04;100.00;100881.53;6076878;23;20014;-60
2023/05/10 04:48:44;;;;;;;113.15;30.48;;;;;;;12.03;100.00;100874.53;6085454;23;20725;-79
2023/05/10 04:53:48;;;;;;;123.55;33.45;;;;;;;11.82;100.00;100873.25;6074614;23;20022;-78
2023/05/10 04:56:13;;;;;;;98.53;28.33;;;;;;;11.84;100.00;100875.00;6087532;23;20011;-79
2023/05/10 04:58:39;;;;;;;108.60;28.85;;;;;;;11.80;100.00;100874.94;6070145;23;20023;-78
2023/05/10 05:01:06;;;;;;;109.28;32.05;;;;;;;11.78;100.00;100874.03;6083748;23;20022;-60
2023/05/10 05:03:32;;;;;;;97.55;28.17;;;;;;;11.76;100.00;100875.72;6075307;23;20025;-59
2023/05/10 05:08:38;;;;;;;102.57;30.23;;;;;;;11.74;100.00;100880.03;6056701;23;20011;-96
2023/05/10 05:11:40;;;;;;;100.45;28.02;;;;;;;11.72;100.00;100890.47;6002611;23;20016;-96
2023/05/10 05:14:05;;;;;;;112.68;31.13;;;;;;;11.70;100.00;100878.22;6032875;23;20022;-59
2023/05/10 05:16:31;;;;;;;105.78;30.88;;;;;;;11.71;100.00;100885.22;6077309;23;20037;-78
2023/05/10 05:18:56;;;;;;;118.78;32.47;;;;;;;11.73;100.00;100889.63;6070806;23;20085;-60
2023/05/10 05:21:22;;;;;;;106.78;29.52;;;;;;;11.72;100.00;100889.59;6098079;23;20021;-60
2023/05/10 05:23:47;;;;;;;112.13;32.00;;;;;;;11.73;100.00;100889.63;6087869;23;20065;-60
2023/05/10 05:26:13;;;;;;;109.47;31.23;;;;;;;11.75;100.00;100897.47;6081216;23;20113;-78
2023/05/10 05:28:38;;;;;;;116.00;32.92;;;;;;;11.76;100.00;100901.81;6062372;23;20073;-79
2023/05/10 05:31:11;;;;;;;114.25;31.02;;;;;;;11.76;100.00;100896.59;6085685;23;20085;-96
2023/05/10 05:33:39;;;;;;;119.28;32.25;;;;;;;11.77;100.00;100903.59;6087747;23;20010;-96
2023/05/10 05:36:05;;;;;;;115.45;32.45;;;;;;;11.77;100.00;100904.47;6074525;23;20022;-78
2023/05/10 05:41:05;;;;;;;107.18;31.25;;;;;;;11.75;100.00;100900.97;6078721;23;20023;-60
2023/05/10 05:43:30;;;;;;;116.13;33.22;;;;;;;11.79;100.00;100907.13;6087202;23;20465;-60
2023/05/10 05:45:57;;;;;;;103.25;29.58;;;;;;;11.80;100.00;100903.66;6083094;23;20027;-60
2023/05/10 05:48:22;;;;;;;114.53;32.28;;;;;;;11.80;100.00;100906.25;6083038;23;20019;-60
2023/05/10 05:53:23;;;;;;;105.93;30.15;;;;;;;11.94;100.00;100911.81;6087374;23;20053;-60
2023/05/10 05:55:57;;;;;;;115.88;33.25;;;;;;;11.91;100.00;100915.19;6069650;23;20390;-60
2023/05/10 05:58:23;;;;;;;114.70;33.15;;;;;;;11.93;100.00;100910.91;6079836;23;20034;-78
2023/05/10 06:00:50;;;;;;;110.18;31.80;;;;;;;11.91;100.00;100912.56;6087270;23;20466;-59
2023/05/10 06:03:15;;;;;;;123.55;36.67;;;;;;;11.95;100.00;100916.19;6080368;23;20041;-60
2023/05/10 06:05:41;;;;;;;111.82;33.25;;;;;;;11.98;100.00;100919.72;6080117;23;20006;-80
2023/05/10 06:08:06;;;;;;;110.10;31.63;;;;;;;11.97;100.00;100925.78;6095108;23;20011;-60
2023/05/10 06:13:08;;;;;;;115.35;33.85;;;;;;;11.99;100.00;100926.69;6068149;23;20023;-60
2023/05/10 06:18:03;;;;;;;109.15;32.75;;;;;;;12.08;100.00;100931.22;6062740;23;20127;-59
2023/05/10 06:22:58;;;;;;;108.13;32.53;;;;;;;12.13;100.00;100931.31;6044314;23;20018;-61
2023/05/10 06:25:24;;;;;;;106.65;32.13;;;;;;;12.14;100.00;100933.06;6080036;23;20023;-59
2023/05/10 06:27:49;;;;;;;120.85;32.97;;;;;;;12.21;100.00;100937.56;6083760;23;20485;-60
2023/05/10 06:32:44;;;;;;;119.90;34.25;;;;;;;12.17;100.00;100940.97;6071418;23;20500;-60
2023/05/10 06:35:10;;;;;;;108.32;31.17;;;;;;;12.18;100.00;100940.13;6095693;23;20529;-60
2023/05/10 06:37:35;;;;;;;119.60;32.53;;;;;;;12.20;100.00;100946.25;6089218;23;20017;-60
2023/05/10 06:40:01;;;;;;;113.72;32.50;;;;;;;12.15;100.00;100946.16;6088552;23;20403;-60
2023/05/10 06:42:27;;;;;;;119.97;33.35;;;;;;;12.22;100.00;100949.75;6081062;23;20033;-60
2023/05/10 06:44:52;;;;;;;115.45;34.80;;;;;;;12.14;100.00;100949.63;6074905;23;20022;-60
2023/05/10 06:47:18;;;;;;;117.05;35.72;;;;;;;12.20;100.00;100950.59;6089855;23;20029;-60
2023/05/10 06:49:43;;;;;;;117.28;32.95;;;;;;;12.27;100.00;100952.47;6080882;23;20450;-78
2023/05/10 06:52:09;;;;;;;124.32;35.80;;;;;;;12.19;100.00;100954.91;6086811;23;20040;-60
2023/05/10 06:59:36;;;;;;;126.03;37.17;;;;;;;12.23;100.00;100963.72;6072107;23;20222;-60
2023/05/10 07:02:02;;;;;;;123.72;33.58;;;;;;;12.24;100.00;100960.22;6077586;23;20014;-77
2023/05/10 07:04:27;;;;;;;125.38;35.88;;;;;;;12.31;100.00;100964.72;6068728;23;20367;-76
2023/05/10 07:06:53;;;;;;;127.45;34.97;;;;;;;12.32;100.00;100972.56;6076553;23;20013;-60
2023/05/10 07:09:18;;;;;;;133.52;37.85;;;;;;;12.31;100.00;100963.00;6028176;23;1071658;-60
2023/05/10 07:11:43;;;;;;;120.55;33.90;;;;;;;12.33;100.00;100971.72;6113008;23;20093;-78
2023/05/10 07:14:09;;;;;;;130.20;36.88;;;;;;;12.35;100.00;100971.75;6094172;23;20072;-78
2023/05/10 07:16:34;;;;;;;128.38;38.30;;;;;;;12.38;100.00;100977.03;6111515;23;20035;-60
2023/05/10 07:19:00;;;;;;;129.02;36.72;;;;;;;12.40;100.00;100977.06;6086361;23;20010;-79
2023/05/10 07:21:28;;;;;;;134.52;38.40;;;;;;;12.37;100.00;100982.22;6089248;23;20045;-78
2023/05/10 07:29:04;;;;;;;134.35;36.63;;;;;;;12.35;100.00;100987.44;6070107;23;20023;-78
2023/05/10 07:33:54;;;;;;;119.70;34.47;;;;;;;12.45;100.00;100993.72;6071365;23;20418;-79
2023/05/10 07:36:20;;;;;;;120.38;33.58;;;;;;;12.36;100.00;100997.03;6072372;23;20010;-60
2023/05/10 07:38:45;;;;;;;106.07;31.65;;;;;;;12.42;100.00;101002.38;6060331;23;20019;-61
2023/05/10 07:41:12;;;;;;;114.05;34.92;;;;;;;12.42;100.00;100999.75;6074474;23;20444;-60
2023/05/10 07:43:37;;;;;;;109.38;33.08;;;;;;;12.39;100.00;101001.44;6083606;23;20838;-60
2023/05/10 07:48:34;;;;;;;109.25;33.28;;;;;;;12.33;100.00;101003.09;6082126;23;20366;-60
2023/05/10 07:50:59;;;;;;;99.53;31.50;;;;;;;12.35;100.00;101000.50;6085254;23;20022;-78
2023/05/10 07:53:26;;;;;;;90.50;30.58;;;;;;;12.38;100.00;101002.28;6080887;23;20103;-79
2023/05/10 07:55:57;;;;;;;90.00;29.63;;;;;;;12.46;100.00;101005.94;6072496;23;20015;-60
2023/05/10 07:58:23;;;;;;;88.15;29.13;;;;;;;12.45;100.00;101012.00;6066457;23;20030;-78
2023/05/10 08:00:49;;;;;;;94.45;29.00;;;;;;;12.43;100.00;101016.34;6085250;23;20034;-60
2023/05/10 08:03:14;;;;;;;84.63;28.65;;;;;;;12.39;100.00;101019.75;6080095;23;20018;-61
2023/05/10 08:05:40;;;;;;;80.55;27.08;;;;;;;12.37;100.00;101022.34;6068247;23;20037;-60
2023/05/10 08:08:05;;;;;;;78.95;27.90;;;;;;;12.40;100.00;101024.09;6080671;23;20026;-60
2023/05/10 08:10:31;;;;;;;78.10;27.52;;;;;;;12.37;100.00;101032.78;6072006;23;20014;-59
2023/05/10 08:12:58;;;;;;;82.82;28.30;;;;;;;12.35;100.00;101037.06;6102170;23;20401;-60
2023/05/10 08:17:53;;;;;;;74.20;25.23;;;;;;;12.37;100.00;101042.34;6105564;23;20026;-78
2023/05/10 08:22:51;;;;;;;73.43;27.10;;;;;;;12.38;100.00;101046.72;6058918;23;20035;-78
2023/05/10 08:25:16;;;;;;;77.90;28.23;;;;;;;12.40;100.00;101038.06;6059393;23;20071;-78
2023/05/10 08:27:41;;;;;;;78.00;27.30;;;;;;;12.44;100.00;101044.22;6060126;23;20011;-60
2023/05/10 08:30:08;;;;;;;75.05;27.25;;;;;;;12.50;100.00;101047.84;6108993;23;20129;-78
2023/05/10 08:32:34;;;;;;;83.53;28.23;;;;;;;12.56;100.00;101052.31;6084231;23;20029;-79
2023/05/10 08:35:00;;;;;;;64.55;26.02;;;;;;;12.65;100.00;101047.22;6075152;23;20019;-61
2023/05/10 08:37:25;;;;;;;64.32;24.92;;;;;;;12.68;100.00;101049.91;6087937;23;20033;-61
2023/05/10 08:39:50;;;;;;;59.15;24.17;;;;;;;12.67;100.00;101053.38;6088091;23;20458;-78
2023/05/10 08:42:20;;;;;;;61.47;24.50;;;;;;;12.73;100.00;101043.88;6085026;23;20053;-61
2023/05/10 08:44:48;;;;;;;57.50;23.35;;;;;;;12.75;100.00;101050.91;6083401;23;20309;-61
2023/05/10 08:49:48;;;;;;;46.22;19.50;;;;;;;12.79;100.00;101055.34;6088728;23;20022;-61
2023/05/10 08:52:16;;;;;;;46.55;19.60;;;;;;;12.78;100.00;101048.34;6086000;23;20025;-78
2023/05/10 08:54:42;;;;;;;43.95;18.48;;;;;;;12.77;100.00;101059.63;6088243;23;20041;-61
2023/05/10 08:59:32;;;;;;;44.25;18.27;;;;;;;12.87;100.00;101066.81;6076176;23;20414;-78
2023/05/10 09:01:59;;;;;;;49.00;19.63;;;;;;;12.89;100.00;101069.47;6075417;23;20014;-61
2023/05/10 09:09:21;;;;;;;41.55;18.55;;;;;;;12.97;100.00;101073.06;6077431;23;20030;-78
2023/05/10 09:11:46;;;;;;;51.97;21.15;;;;;;;13.03;100.00;101067.06;6085129;23;20775;-79
2023/05/10 09:14:13;;;;;;;46.33;19.13;;;;;;;13.12;100.00;101064.63;6088261;23;20012;-78
2023/05/10 09:16:41;;;;;;;44.20;18.35;;;;;;;13.18;100.00;101071.69;6088780;23;20010;-79
2023/05/10 09:19:08;;;;;;;45.83;19.10;;;;;;;13.30;100.00;101071.00;6050477;23;20113;-80
2023/05/10 09:21:36;;;;;;;52.67;19.58;;;;;;;13.38;100.00;101078.16;6062669;23;20094;-79
2023/05/10 09:24:06;;;;;;;40.70;18.37;;;;;;;13.47;100.00;101068.66;6053518;23;20061;-79
2023/05/10 09:26:32;;;;;;;45.17;19.27;;;;;;;13.55;100.00;101072.28;6102021;23;20624;-61
2023/05/10 09:28:58;;;;;;;38.95;16.30;;;;;;;13.61;100.00;101076.75;6111519;23;20022;-61
2023/05/10 09:31:27;;;;;;;37.50;16.58;;;;;;;13.67;100.00;101072.50;6114207;23;20022;-79
2023/05/10 09:33:53;;;;;;;39.33;16.77;;;;;;;13.74;100.00;101069.09;6104756;23;20018;-61
2023/05/10 09:36:19;;;;;;;38.95;18.30;;;;;;;13.88;100.00;101071.03;6114751;23;20017;-79
2023/05/10 09:38:48;;;;;;;39.50;17.90;;;;;;;13.98;100.00;101079.91;6114665;23;20668;-61
2023/05/10 09:41:33;;;;;;;41.20;17.77;;;;;;;14.11;100.00;101073.94;6117864;23;20094;-60
2023/05/10 09:49:07;;;;;;;38.38;18.42;;;;;;;14.21;100.00;101077.56;6081242;23;20353;-79
2023/05/10 09:51:34;;;;;;;40.95;17.45;;;;;;;14.21;100.00;101077.56;6085454;23;20450;-60
2023/05/10 09:56:39;;;;;;;40.60;18.45;;;;;;;14.21;100.00;101086.31;6077047;23;20023;-79
2023/05/10 10:01:36;;;;;;;40.08;18.23;;;;;;;14.17;100.00;101081.88;6075948;23;20034;-80
2023/05/10 10:04:05;;;;;;;39.63;18.27;;;;;;;14.13;100.00;101087.94;6062698;23;20493;-61
2023/05/10 10:06:38;;;;;;;43.15;18.20;;;;;;;14.06;100.00;101094.84;6081115;23;20025;-61
2023/05/10 10:09:05;;;;;;;36.90;16.40;;;;;;;14.03;100.00;101091.31;6085738;23;20015;-79
2023/05/10 10:11:31;;;;;;;41.65;18.92;;;;;;;13.98;100.00;101088.63;6071752;23;20387;-61
2023/05/10 10:13:56;;;;;;;37.45;17.73;;;;;;;14.01;100.00;101088.66;6082660;23;20027;-60
2023/05/10 10:16:22;;;;;;;32.97;15.60;;;;;;;14.07;100.00;101093.97;6079094;23;20027;-61
2023/05/10 10:18:48;;;;;;;32.67;15.45;;;;;;;14.10;100.00;101090.53;6070983;23;20037;-61
2023/05/10 10:21:14;;;;;;;35.95;16.40;;;;;;;14.22;100.00;101101.19;6074131;23;20130;-61
2023/05/10 10:23:40;;;;;;;33.92;15.77;;;;;;;14.35;100.00;101089.09;6088604;23;20006;-61
2023/05/10 10:26:06;;;;;;;32.38;14.82;;;;;;;14.42;100.00;101101.44;6083117;23;20076;-60
2023/05/10 10:28:48;;;;;;;32.78;15.32;;;;;;;14.42;100.00;101100.53;6086555;23;20353;-80
2023/05/10 10:34:00;;;;;;;36.45;16.13;;;;;;;14.52;100.00;101098.91;6079438;23;20336;-80
2023/05/10 10:36:30;;;;;;;35.67;16.20;;;;;;;14.50;100.00;101100.63;6065564;23;20343;-60
2023/05/10 10:41:31;;;;;;;37.40;16.15;;;;;;;14.41;100.00;101099.66;6078647;23;20117;-79
2023/05/10 10:46:58;;;;;;;34.97;16.48;;;;;;;14.33;100.00;101098.66;6077883;23;20034;-60
2023/05/10 10:49:24;;;;;;;36.83;15.85;;;;;;;14.35;100.00;101088.19;6071051;23;20018;-61
2023/05/10 10:52:23;;;;;;;36.50;17.10;;;;;;;14.42;100.00;101098.81;6087098;23;20014;-80
2023/05/10 10:54:53;;;;;;;37.42;16.95;;;;;;;14.46;100.00;101101.47;6020392;23;20034;-80
2023/05/10 10:57:21;;;;;;;38.28;17.15;;;;;;;14.53;100.00;101095.44;6086989;23;20019;-80
2023/05/10 10:59:47;;;;;;;36.87;17.80;;;;;;;14.67;100.00;101096.50;6068160;23;20023;-79
2023/05/10 11:04:52;;;;;;;39.53;19.35;;;;;;;14.87;100.00;101091.41;6082903;23;20022;-60
2023/05/10 11:09:50;;;;;;;42.13;19.63;;;;;;;15.09;100.00;101092.53;6088672;23;20402;-61
2023/05/10 11:12:15;;;;;;;44.17;18.10;;;;;;;15.30;100.00;101097.06;6030293;23;1072563;-60
2023/05/10 11:14:41;;;;;;;42.75;20.55;;;;;;;15.46;100.00;101079.69;6106698;23;20010;-80
2023/05/10 11:17:27;;;;;;;40.70;18.27;;;;;;;15.59;94.05;101098.16;6078165;23;20152;-60
2023/05/10 11:20:14;;;;;;;38.75;18.85;;;;;;;15.50;94.35;101095.44;6076768;23;20025;-80
2023/05/10 11:22:53;;;;;;;37.70;18.63;;;;;;;15.35;94.89;101097.13;6080939;23;20306;-80
2023/05/10 11:25:19;;;;;;;45.70;20.63;;;;;;;15.32;92.07;101106.69;6083505;23;20461;-80
2023/05/10 11:27:47;;;;;;;46.97;21.33;;;;;;;15.08;93.21;101108.25;6064010;23;20029;-81
2023/05/10 11:30:13;;;;;;;46.95;21.42;;;;;;;14.92;93.52;101102.00;6079883;23;20096;-60
2023/05/10 11:32:40;;;;;;;49.53;22.70;;;;;;;14.78;96.24;101107.09;6083222;23;20062;-61
2023/05/10 11:35:10;;;;;;;52.97;23.85;;;;;;;14.76;99.75;101114.94;6076776;23;20023;-61
2023/05/10 11:40:05;;;;;;;52.47;22.77;;;;;;;14.84;100.00;101117.63;6074434;23;20033;-96
2023/05/10 11:42:31;;;;;;;43.72;19.55;;;;;;;14.81;100.00;101116.72;6091356;23;20023;-80
2023/05/10 11:44:56;;;;;;;44.97;21.13;;;;;;;14.87;98.82;101119.41;6085957;23;20541;-79
2023/05/10 11:49:47;;;;;;;40.78;21.15;;;;;;;14.83;94.01;101117.63;6082842;23;20470;-80
2023/05/10 11:52:13;;;;;;;41.80;20.77;;;;;;;14.74;94.63;101118.41;6088773;23;20037;-81
2023/05/10 11:54:46;;;;;;;42.10;21.45;;;;;;;14.73;93.90;101122.78;6076793;23;20033;-80
2023/05/10 11:57:11;;;;;;;47.05;22.75;;;;;;;14.64;96.16;101132.28;6062566;23;20021;-80
2023/05/10 12:02:15;;;;;;;53.08;22.88;;;;;;;14.57;97.51;101133.91;6082774;23;20022;-81
2023/05/10 12:04:41;;;;;;;51.97;24.02;;;;;;;14.51;99.20;101134.75;6087174;23;20266;-80
2023/05/10 12:07:06;;;;;;;54.15;25.73;;;;;;;14.39;100.00;101142.44;6084648;23;20026;-60
2023/05/10 12:09:32;;;;;;;62.22;31.63;;;;;;;14.33;100.00;101135.38;6063195;23;20014;-61
2023/05/10 12:11:57;;;;;;;54.97;26.20;;;;;;;14.30;100.00;101140.59;6081492;23;20522;-60
2023/05/10 12:14:23;;;;;;;53.65;23.83;;;;;;;14.30;100.00;101143.19;6080802;23;20073;-80
2023/05/10 12:16:49;;;;;;;51.97;21.85;;;;;;;14.08;100.00;101142.91;6088629;23;20017;-79
2023/05/10 12:19:19;;;;;;;60.70;27.20;;;;;;;13.93;100.00;101147.91;6088762;23;20022;-80
2023/05/10 12:21:44;;;;;;;61.42;27.70;;;;;;;13.78;100.00;101147.72;6066007;23;20048;-59
2023/05/10 12:24:10;;;;;;;62.30;26.92;;;;;;;13.70;100.00;101151.09;6078897;23;19998;-59
2023/05/10 12:34:07;;;;;;;56.78;24.73;;;;;;;13.45;100.00;101141.06;6064329;23;20026;-77
2023/05/10 12:39:08;;;;;;;64.05;26.38;;;;;;;13.55;100.00;101156.94;6054942;23;20529;-59
2023/05/10 12:41:33;;;;;;;56.55;25.52;;;;;;;13.66;100.00;101149.28;6075999;23;20018;-58
2023/05/10 12:43:58;;;;;;;55.42;24.77;;;;;;;13.73;100.00;101152.88;6093279;23;20102;-77
2023/05/10 12:46:27;;;;;;;56.17;24.55;;;;;;;13.71;100.00;101152.84;6085754;23;20022;-59
2023/05/10 12:51:23;;;;;;;51.78;23.40;;;;;;;13.83;100.00;101166.97;6075310;23;20060;-77
2023/05/10 12:53:49;;;;;;;58.70;23.77;;;;;;;13.88;100.00;101173.19;6070090;23;20006;-77
2023/05/10 12:56:14;;;;;;;56.78;25.20;;;;;;;13.90;100.00;101166.22;6071167;23;20552;-77
2023/05/10 12:58:40;;;;;;;56.33;24.63;;;;;;;13.96;100.00;101166.34;6079850;23;20366;-77
2023/05/10 13:06:13;;;;;;;68.45;27.88;;;;;;;13.88;100.00;101168.81;6083516;23;20026;-78
2023/05/10 13:08:38;;;;;;;69.97;27.55;;;;;;;13.85;100.00;101171.41;6082348;23;20017;-79
2023/05/10 13:11:04;;;;;;;81.25;30.08;;;;;;;13.86;100.00;101183.63;6103828;23;20352;-78
2023/05/10 13:13:29;;;;;;;78.20;30.20;;;;;;;13.82;100.00;101179.22;6107031;23;20016;-77
2023/05/10 13:18:21;;;;;;;88.07;32.15;;;;;;;13.87;100.00;101180.13;6110898;23;20036;-59
2023/05/10 13:20:47;;;;;;;81.32;29.48;;;;;;;13.91;100.00;101179.34;6113967;23;20049;-77
2023/05/10 13:23:12;;;;;;;83.93;31.15;;;;;;;13.97;100.00;101182.91;6111237;23;20017;-58